createdAt,value
2023-04-23T00:00:17.468Z,89.88
2023-04-23T00:01:14.291Z,89.34
2023-04-23T00:02:15.129Z,89.25
2023-04-23T00:03:14.935Z,89.26
2023-04-23T00:04:13.717Z,88.63
2023-04-23T00:05:13.046Z,88.63
2023-04-23T00:06:11.177Z,88.69
2023-04-23T00:07:09.127Z,88.74
2023-04-23T00:08:06.305Z,88.76
2023-04-23T00:09:04.108Z,88.87
2023-04-23T00:10:01.781Z,89.13
2023-04-23T00:10:58.702Z,89.20
2023-04-23T00:11:56.347Z,89.88
2023-04-23T00:12:53.232Z,90.25
2023-04-23T00:13:50.119Z,90.36
2023-04-23T00:14:47.011Z,90.70
2023-04-23T00:15:43.892Z,91.07
2023-04-23T00:16:41.103Z,91.39
2023-04-23T00:17:37.859Z,92.27
2023-04-23T00:18:35.512Z,92.57
2023-04-23T00:19:32.182Z,92.14
2023-04-23T00:20:28.990Z,91.54
2023-04-23T00:21:25.597Z,90.72
2023-04-23T00:22:22.219Z,90.44
2023-04-23T00:23:18.923Z,90.86
2023-04-23T00:24:15.543Z,91.22
2023-04-23T00:25:12.280Z,91.23
2023-04-23T00:26:08.955Z,91.46
2023-04-23T00:27:05.692Z,91.53
2023-04-23T00:28:02.325Z,91.21
2023-04-23T00:28:59.005Z,91.01
2023-04-23T00:29:55.751Z,90.92
2023-04-23T00:30:52.474Z,91.01
2023-04-23T00:31:49.271Z,90.78
2023-04-23T00:32:46.463Z,90.77
2023-04-23T00:33:43.119Z,90.28
2023-04-23T00:34:39.933Z,89.80
2023-04-23T00:35:36.693Z,89.55
2023-04-23T00:36:33.573Z,89.74
2023-04-23T00:37:30.271Z,89.41
2023-04-23T00:38:26.957Z,88.77
2023-04-23T00:39:23.583Z,89.22
2023-04-23T00:40:20.861Z,88.93
2023-04-23T00:41:18.750Z,88.66
2023-04-23T00:42:17.293Z,89.07
2023-04-23T00:43:15.519Z,88.85
2023-04-23T00:44:13.237Z,88.20
2023-04-23T00:45:10.244Z,88.25
2023-04-23T00:46:07.235Z,87.90
2023-04-23T00:47:04.286Z,87.65
2023-04-23T00:48:02.239Z,87.66
2023-04-23T00:49:00.415Z,87.87
2023-04-23T00:49:58.184Z,88.47
2023-04-23T00:51:05.131Z,89.02
2023-04-23T00:52:01.861Z,89.46
2023-04-23T00:52:58.748Z,89.75
2023-04-23T00:53:56.412Z,90.09
2023-04-23T00:54:53.079Z,90.48
2023-04-23T00:55:49.678Z,90.86
2023-04-23T00:56:46.411Z,90.95
2023-04-23T00:57:43.448Z,91.27
2023-04-23T00:58:40.872Z,91.14
2023-04-23T00:59:37.801Z,91.44
2023-04-23T01:00:41.944Z,91.41
2023-04-23T01:01:38.650Z,92.00
2023-04-23T01:02:37.624Z,92.71
2023-04-23T01:03:36.874Z,93.09
2023-04-23T01:04:34.922Z,93.13
2023-04-23T01:05:32.024Z,92.78
2023-04-23T01:06:28.879Z,92.98
2023-04-23T01:07:27.151Z,93.32
2023-04-23T01:08:25.925Z,93.59
2023-04-23T01:09:23.249Z,93.22
2023-04-23T01:10:21.452Z,93.63
2023-04-23T01:11:18.119Z,93.24
2023-04-23T01:12:15.599Z,91.93
2023-04-23T01:13:13.968Z,91.40
2023-04-23T01:14:11.541Z,91.29
2023-04-23T01:15:09.104Z,91.05
2023-04-23T01:16:06.599Z,90.88
2023-04-23T01:17:03.417Z,90.38
2023-04-23T01:18:00.301Z,90.49
2023-04-23T01:18:58.473Z,90.99
2023-04-23T01:19:55.062Z,90.68
2023-04-23T01:20:51.870Z,90.24
2023-04-23T01:21:50.084Z,90.26
2023-04-23T01:22:46.833Z,90.06
2023-04-23T01:23:43.627Z,90.80
2023-04-23T01:24:42.709Z,91.36
2023-04-23T01:25:40.054Z,92.09
2023-04-23T01:26:36.895Z,92.07
2023-04-23T01:27:36.030Z,92.58
2023-04-23T01:28:33.384Z,93.21
2023-04-23T01:29:31.203Z,93.70
2023-04-23T01:30:28.648Z,93.45
2023-04-23T01:31:26.151Z,93.51
2023-04-23T01:32:23.110Z,93.29
2023-04-23T01:33:20.205Z,92.84
2023-04-23T01:34:17.470Z,93.02
2023-04-23T01:35:14.509Z,93.36
2023-04-23T01:36:11.548Z,93.46
2023-04-23T01:37:09.196Z,93.27
2023-04-23T01:38:09.461Z,93.30
2023-04-23T01:39:06.126Z,93.34
2023-04-23T01:40:02.874Z,93.64
2023-04-23T01:40:59.593Z,93.34
2023-04-23T01:41:57.062Z,93.95
2023-04-23T01:42:54.354Z,93.62
2023-04-23T01:43:51.211Z,93.13
2023-04-23T01:44:47.872Z,92.50
2023-04-23T01:45:44.481Z,92.38
2023-04-23T01:46:41.947Z,92.61
2023-04-23T01:47:38.756Z,92.23
2023-04-23T01:48:35.727Z,92.17
2023-04-23T01:49:32.450Z,91.51
2023-04-23T01:50:30.108Z,91.19
2023-04-23T01:51:27.169Z,90.96
2023-04-23T01:52:23.872Z,90.73
2023-04-23T01:53:20.491Z,91.08
2023-04-23T01:54:17.190Z,90.80
2023-04-23T01:55:14.327Z,90.29
2023-04-23T01:56:11.690Z,89.80
2023-04-23T01:57:09.629Z,89.35
2023-04-23T01:58:06.611Z,89.39
2023-04-23T01:59:03.221Z,89.10
2023-04-23T02:00:14.861Z,89.45
2023-04-23T02:01:11.714Z,89.48
2023-04-23T02:02:11.156Z,89.92
2023-04-23T02:03:08.053Z,89.25
2023-04-23T02:04:05.276Z,89.06
2023-04-23T02:05:05.895Z,89.14
2023-04-23T02:06:05.013Z,89.54
2023-04-23T02:07:01.879Z,89.99
2023-04-23T02:07:58.518Z,89.71
2023-04-23T02:08:55.161Z,89.01
2023-04-23T02:09:51.862Z,89.17
2023-04-23T02:10:48.581Z,89.90
2023-04-23T02:11:45.395Z,90.00
2023-04-23T02:12:42.505Z,90.34
2023-04-23T02:13:39.112Z,90.79
2023-04-23T02:14:35.749Z,91.16
2023-04-23T02:15:32.667Z,90.82
2023-04-23T02:16:29.326Z,90.20
2023-04-23T02:17:29.389Z,89.76
2023-04-23T02:18:26.065Z,90.58
2023-04-23T02:19:22.719Z,91.69
2023-04-23T02:20:19.952Z,92.17
2023-04-23T02:21:16.603Z,92.33
2023-04-23T02:22:13.305Z,92.53
2023-04-23T02:23:10.289Z,92.94
2023-04-23T02:24:07.122Z,93.00
2023-04-23T02:25:04.045Z,93.10
2023-04-23T02:26:00.658Z,93.52
2023-04-23T02:26:58.107Z,93.87
2023-04-23T02:27:54.856Z,93.98
2023-04-23T02:28:51.609Z,94.22
2023-04-23T02:29:49.161Z,94.77
2023-04-23T02:30:47.925Z,94.90
2023-04-23T02:31:44.562Z,94.33
2023-04-23T02:32:43.152Z,94.46
2023-04-23T02:33:42.495Z,94.22
2023-04-23T02:34:39.379Z,93.55
2023-04-23T02:35:36.139Z,93.76
2023-04-23T02:36:32.814Z,93.80
2023-04-23T02:37:29.462Z,93.47
2023-04-23T02:38:26.141Z,93.08
2023-04-23T02:39:22.805Z,93.46
2023-04-23T02:40:19.409Z,93.18
2023-04-23T02:41:16.035Z,93.18
2023-04-23T02:42:13.557Z,93.42
2023-04-23T02:43:10.138Z,93.09
2023-04-23T02:44:07.169Z,92.86
2023-04-23T02:45:04.389Z,93.21
2023-04-23T02:46:07.920Z,92.81
2023-04-23T02:47:04.866Z,93.49
2023-04-23T02:48:01.623Z,93.46
2023-04-23T02:48:58.404Z,93.92
2023-04-23T02:49:55.060Z,93.82
2023-04-23T02:50:51.746Z,94.20
2023-04-23T02:51:48.534Z,93.94
2023-04-23T02:52:45.320Z,94.49
2023-04-23T02:53:41.973Z,94.40
2023-04-23T02:54:38.737Z,94.31
2023-04-23T02:55:35.629Z,94.83
2023-04-23T02:56:32.190Z,94.29
2023-04-23T02:57:28.782Z,94.76
2023-04-23T02:58:25.412Z,94.71
2023-04-23T02:59:22.021Z,94.59
2023-04-23T03:00:18.869Z,94.28
2023-04-23T03:01:16.084Z,93.53
2023-04-23T03:02:12.807Z,94.26
2023-04-23T03:03:11.871Z,94.74
2023-04-23T03:04:09.344Z,94.76
2023-04-23T03:05:07.481Z,94.62
2023-04-23T03:06:04.439Z,95.15
2023-04-23T03:07:01.142Z,95.33
2023-04-23T03:07:57.746Z,95.85
2023-04-23T03:08:54.372Z,95.85
2023-04-23T03:09:51.046Z,95.94
2023-04-23T03:10:47.658Z,95.59
2023-04-23T03:11:44.332Z,95.66
2023-04-23T03:12:41.052Z,95.18
2023-04-23T03:13:37.931Z,95.24
2023-04-23T03:14:34.632Z,95.35
2023-04-23T03:15:31.710Z,95.96
2023-04-23T03:16:29.838Z,95.72
2023-04-23T03:17:26.568Z,95.78
2023-04-23T03:18:23.533Z,96.03
2023-04-23T03:19:20.239Z,96.09
2023-04-23T03:20:16.906Z,95.98
2023-04-23T03:21:13.495Z,95.80
2023-04-23T03:22:10.298Z,95.79
2023-04-23T03:23:06.887Z,95.94
2023-04-23T03:24:03.610Z,95.61
2023-04-23T03:25:00.326Z,95.16
2023-04-23T03:25:57.023Z,95.25
2023-04-23T03:26:53.617Z,95.79
2023-04-23T03:27:50.204Z,95.67
2023-04-23T03:28:46.808Z,96.42
2023-04-23T03:29:43.389Z,96.16
2023-04-23T03:30:40.153Z,97.03
2023-04-23T03:31:36.930Z,97.06
2023-04-23T03:32:33.590Z,97.06
2023-04-23T03:33:30.331Z,97.12
2023-04-23T03:34:26.955Z,97.00
2023-04-23T03:35:24.531Z,97.39
2023-04-23T03:36:21.513Z,97.33
2023-04-23T03:37:18.140Z,97.27
2023-04-23T03:38:14.795Z,97.39
2023-04-23T03:39:11.414Z,96.53
2023-04-23T03:40:09.317Z,96.63
2023-04-23T03:41:06.203Z,96.58
2023-04-23T03:42:02.942Z,96.66
2023-04-23T03:42:59.798Z,96.80
2023-04-23T03:43:56.448Z,97.00
2023-04-23T03:44:53.025Z,96.82
2023-04-23T03:45:49.618Z,96.25
2023-04-23T03:46:46.214Z,96.26
2023-04-23T03:47:43.784Z,96.83
2023-04-23T03:48:40.714Z,96.26
2023-04-23T03:49:38.230Z,96.35
2023-04-23T03:50:38.949Z,96.89
2023-04-23T03:51:36.921Z,96.90
2023-04-23T03:52:33.998Z,97.35
2023-04-23T03:53:30.584Z,97.28
2023-04-23T03:54:28.301Z,96.47
2023-04-23T03:55:25.027Z,97.21
2023-04-23T03:56:21.710Z,96.98
2023-04-23T03:57:18.414Z,96.36
2023-04-23T03:58:15.028Z,96.83
2023-04-23T03:59:12.072Z,96.39
2023-04-23T04:00:10.249Z,96.38
2023-04-23T04:01:07.142Z,96.40
2023-04-23T04:02:06.756Z,96.42
2023-04-23T04:03:04.458Z,96.67
2023-04-23T04:04:01.567Z,97.18
2023-04-23T04:04:58.381Z,96.46
2023-04-23T04:05:55.226Z,96.96
2023-04-23T04:06:51.887Z,96.52
2023-04-23T04:07:48.565Z,96.31
2023-04-23T04:08:45.266Z,96.61
2023-04-23T04:09:41.894Z,96.19
2023-04-23T04:10:38.571Z,96.64
2023-04-23T04:11:35.764Z,96.78
2023-04-23T04:12:32.462Z,96.34
2023-04-23T04:13:29.127Z,96.47
2023-04-23T04:14:26.122Z,96.74
2023-04-23T04:15:22.887Z,96.66
2023-04-23T04:16:19.593Z,96.51
2023-04-23T04:17:16.350Z,96.79
2023-04-23T04:18:13.044Z,96.67
2023-04-23T04:19:10.165Z,96.01
2023-04-23T04:20:11.294Z,96.41
2023-04-23T04:21:08.016Z,95.60
2023-04-23T04:22:04.917Z,95.60
2023-04-23T04:23:01.484Z,95.51
2023-04-23T04:23:58.110Z,95.61
2023-04-23T04:24:54.746Z,95.73
2023-04-23T04:25:51.726Z,95.54
2023-04-23T04:26:49.321Z,95.30
2023-04-23T04:27:45.874Z,95.63
2023-04-23T04:28:42.560Z,95.69
2023-04-23T04:29:40.923Z,95.71
2023-04-23T04:30:38.381Z,95.14
2023-04-23T04:31:34.974Z,94.71
2023-04-23T04:32:32.586Z,94.43
2023-04-23T04:33:29.241Z,93.65
2023-04-23T04:34:26.328Z,93.11
2023-04-23T04:35:23.047Z,93.02
2023-04-23T04:36:19.651Z,92.94
2023-04-23T04:37:16.647Z,92.42
2023-04-23T04:38:13.257Z,92.15
2023-04-23T04:39:10.170Z,92.11
2023-04-23T04:40:08.057Z,92.82
2023-04-23T04:41:05.239Z,92.91
2023-04-23T04:42:02.981Z,93.32
2023-04-23T04:43:00.198Z,93.44
2023-04-23T04:43:58.671Z,93.35
2023-04-23T04:44:58.295Z,92.91
2023-04-23T04:45:54.891Z,92.39
2023-04-23T04:46:52.891Z,91.25
2023-04-23T04:47:49.649Z,90.87
2023-04-23T04:48:47.133Z,90.55
2023-04-23T04:49:43.828Z,90.11
2023-04-23T04:50:40.758Z,90.41
2023-04-23T04:51:38.220Z,90.15
2023-04-23T04:52:36.049Z,89.59
2023-04-23T04:53:32.742Z,89.41
2023-04-23T04:54:29.315Z,89.30
2023-04-23T04:55:27.224Z,89.22
2023-04-23T04:56:24.252Z,88.58
2023-04-23T04:57:22.891Z,88.56
2023-04-23T04:58:19.561Z,88.53
2023-04-23T04:59:16.529Z,88.81
2023-04-23T05:00:24.986Z,88.79
2023-04-23T05:01:24.752Z,88.65
2023-04-23T05:02:23.463Z,88.23
2023-04-23T05:03:20.636Z,87.88
2023-04-23T05:04:17.447Z,87.76
2023-04-23T05:05:14.196Z,86.54
2023-04-23T05:06:10.842Z,85.55
2023-04-23T05:07:07.554Z,85.45
2023-04-23T05:08:04.187Z,85.14
2023-04-23T05:09:00.781Z,84.95
2023-04-23T05:09:57.432Z,85.00
2023-04-23T05:10:54.413Z,85.43
2023-04-23T05:11:51.757Z,85.11
2023-04-23T05:12:48.376Z,85.02
2023-04-23T05:13:45.666Z,84.79
2023-04-23T05:14:42.440Z,85.11
2023-04-23T05:15:39.220Z,85.51
2023-04-23T05:16:35.903Z,85.79
2023-04-23T05:17:34.605Z,85.09
2023-04-23T05:18:31.255Z,85.04
2023-04-23T05:19:27.910Z,84.85
2023-04-23T05:20:24.576Z,84.12
2023-04-23T05:21:21.220Z,83.28
2023-04-23T05:22:18.412Z,82.60
2023-04-23T05:23:15.051Z,82.30
2023-04-23T05:24:11.701Z,82.37
2023-04-23T05:25:09.916Z,82.48
2023-04-23T05:26:06.617Z,82.29
2023-04-23T05:27:03.269Z,82.28
2023-04-23T05:27:59.919Z,82.67
2023-04-23T05:28:56.606Z,82.15
2023-04-23T05:29:53.247Z,80.86
2023-04-23T05:30:50.734Z,79.57
2023-04-23T05:31:47.444Z,80.26
2023-04-23T05:32:44.325Z,79.69
2023-04-23T05:33:49.343Z,80.24
2023-04-23T05:34:47.223Z,79.73
2023-04-23T05:35:43.848Z,78.71
2023-04-23T05:36:40.504Z,77.36
2023-04-23T05:37:37.086Z,76.29
2023-04-23T05:38:33.723Z,76.90
2023-04-23T05:39:30.461Z,77.70
2023-04-23T05:40:27.152Z,77.62
2023-04-23T05:41:23.776Z,77.42
2023-04-23T05:42:20.360Z,77.18
2023-04-23T05:43:16.993Z,77.59
2023-04-23T05:44:13.744Z,77.56
2023-04-23T05:45:10.825Z,76.92
2023-04-23T05:46:07.897Z,77.16
2023-04-23T05:47:05.324Z,78.10
2023-04-23T05:48:01.985Z,78.00
2023-04-23T05:48:58.689Z,76.48
2023-04-23T05:49:57.406Z,76.77
2023-04-23T05:50:53.989Z,76.91
2023-04-23T05:51:51.705Z,77.02
2023-04-23T05:52:48.365Z,77.08
2023-04-23T05:53:44.963Z,76.63
2023-04-23T05:54:42.533Z,75.74
2023-04-23T05:55:39.413Z,76.00
2023-04-23T05:56:36.312Z,77.44
2023-04-23T05:57:33.057Z,77.41
2023-04-23T05:58:29.637Z,76.96
2023-04-23T05:59:26.242Z,77.50
2023-04-23T06:00:22.913Z,76.67
2023-04-23T06:01:19.805Z,76.02
2023-04-23T06:02:16.596Z,77.37
2023-04-23T06:03:13.414Z,77.14
2023-04-23T06:04:10.394Z,75.99
2023-04-23T06:05:08.232Z,76.21
2023-04-23T06:06:05.102Z,77.42
2023-04-23T06:07:01.739Z,76.66
2023-04-23T06:07:58.452Z,76.38
2023-04-23T06:08:55.045Z,75.84
2023-04-23T06:09:51.668Z,75.94
2023-04-23T06:10:48.464Z,75.76
2023-04-23T06:11:45.143Z,75.32
2023-04-23T06:12:42.351Z,75.47
2023-04-23T06:13:43.434Z,74.72
2023-04-23T06:14:40.586Z,73.96
2023-04-23T06:15:37.280Z,74.82
2023-04-23T06:16:33.837Z,74.50
2023-04-23T06:17:30.582Z,74.64
2023-04-23T06:18:27.658Z,74.16
2023-04-23T06:19:27.957Z,74.65
2023-04-23T06:20:25.455Z,75.41
2023-04-23T06:21:23.034Z,74.18
2023-04-23T06:22:19.685Z,73.56
2023-04-23T06:23:16.628Z,73.35
2023-04-23T06:24:13.209Z,71.44
2023-04-23T06:25:10.021Z,70.69
2023-04-23T06:26:06.767Z,71.96
2023-04-23T06:27:03.544Z,73.58
2023-04-23T06:28:00.379Z,73.17
2023-04-23T06:28:56.995Z,72.88
2023-04-23T06:29:53.792Z,73.55
2023-04-23T06:30:50.557Z,74.22
2023-04-23T06:31:47.318Z,73.64
2023-04-23T06:32:44.095Z,73.53
2023-04-23T06:33:41.035Z,74.02
2023-04-23T06:34:44.007Z,74.23
2023-04-23T06:35:47.154Z,74.09
2023-04-23T06:36:44.088Z,73.59
2023-04-23T06:37:40.811Z,73.35
2023-04-23T06:38:38.071Z,74.01
2023-04-23T06:39:34.668Z,73.15
2023-04-23T06:40:31.247Z,71.64
2023-04-23T06:41:27.925Z,73.74
2023-04-23T06:42:24.513Z,74.80
2023-04-23T06:43:21.441Z,75.04
2023-04-23T06:44:18.117Z,75.49
2023-04-23T06:45:16.390Z,74.06
2023-04-23T06:46:12.952Z,73.49
2023-04-23T06:47:09.632Z,72.45
2023-04-23T06:48:06.838Z,72.29
2023-04-23T06:49:03.602Z,73.05
2023-04-23T06:50:00.382Z,72.28
2023-04-23T06:50:57.102Z,72.22
2023-04-23T06:51:54.532Z,72.39
2023-04-23T06:52:53.208Z,72.59
2023-04-23T06:53:49.866Z,71.30
2023-04-23T06:54:46.550Z,71.92
2023-04-23T06:55:43.105Z,72.32
2023-04-23T06:56:39.859Z,72.99
2023-04-23T06:57:36.457Z,73.38
2023-04-23T06:58:33.221Z,73.09
2023-04-23T06:59:29.898Z,71.87
2023-04-23T07:00:26.966Z,71.95
2023-04-23T07:01:23.704Z,71.60
2023-04-23T07:02:20.412Z,72.73
2023-04-23T07:03:17.609Z,71.77
2023-04-23T07:04:14.376Z,71.54
2023-04-23T07:05:11.316Z,70.50
2023-04-23T07:06:07.997Z,71.22
2023-04-23T07:07:04.765Z,70.86
2023-04-23T07:08:01.463Z,70.10
2023-04-23T07:08:58.098Z,69.89
2023-04-23T07:09:55.601Z,69.27
2023-04-23T07:10:53.356Z,68.43
2023-04-23T07:11:50.147Z,68.84
2023-04-23T07:12:48.418Z,68.09
2023-04-23T07:13:46.107Z,67.59
2023-04-23T07:14:43.682Z,68.51
2023-04-23T07:15:41.575Z,68.54
2023-04-23T07:16:38.383Z,69.11
2023-04-23T07:17:36.053Z,68.64
2023-04-23T07:18:32.693Z,68.00
2023-04-23T07:19:29.326Z,67.59
2023-04-23T07:20:26.260Z,66.23
2023-04-23T07:21:22.970Z,67.20
2023-04-23T07:22:19.661Z,69.02
2023-04-23T07:23:16.331Z,69.30
2023-04-23T07:24:12.873Z,69.02
2023-04-23T07:25:09.718Z,67.14
2023-04-23T07:26:06.372Z,69.07
2023-04-23T07:27:03.808Z,68.57
2023-04-23T07:28:00.688Z,67.34
2023-04-23T07:28:57.315Z,68.07
2023-04-23T07:29:53.900Z,67.32
2023-04-23T07:30:50.567Z,66.97
2023-04-23T07:31:48.291Z,67.02
2023-04-23T07:32:44.962Z,66.21
2023-04-23T07:33:41.597Z,66.27
2023-04-23T07:34:38.845Z,66.00
2023-04-23T07:35:35.502Z,65.45
2023-04-23T07:36:32.103Z,64.86
2023-04-23T07:37:28.740Z,66.22
2023-04-23T07:38:25.352Z,65.46
2023-04-23T07:39:22.394Z,65.33
2023-04-23T07:40:19.891Z,66.54
2023-04-23T07:41:17.248Z,65.05
2023-04-23T07:42:13.847Z,64.33
2023-04-23T07:43:10.806Z,64.15
2023-04-23T07:44:07.507Z,65.04
2023-04-23T07:45:04.565Z,62.67
2023-04-23T07:46:01.139Z,64.56
2023-04-23T07:46:57.758Z,64.67
2023-04-23T07:47:54.425Z,63.66
2023-04-23T07:48:52.121Z,64.01
2023-04-23T07:49:48.741Z,63.80
2023-04-23T07:50:45.514Z,63.98
2023-04-23T07:51:42.288Z,63.96
2023-04-23T07:52:39.329Z,64.16
2023-04-23T07:53:35.899Z,64.66
2023-04-23T07:54:32.579Z,64.28
2023-04-23T07:55:29.243Z,64.13
2023-04-23T07:56:26.012Z,63.76
2023-04-23T07:57:22.632Z,61.74
2023-04-23T07:58:19.377Z,61.61
2023-04-23T07:59:15.973Z,62.45
2023-04-23T08:00:13.480Z,62.48
2023-04-23T08:01:10.182Z,62.48
2023-04-23T08:02:07.090Z,63.14
2023-04-23T08:03:03.982Z,64.73
2023-04-23T08:04:01.000Z,63.63
2023-04-23T08:04:57.899Z,62.36
2023-04-23T08:05:54.643Z,61.69
2023-04-23T08:06:52.152Z,61.78
2023-04-23T08:07:48.727Z,62.16
2023-04-23T08:08:45.364Z,61.58
2023-04-23T08:09:42.674Z,61.41
2023-04-23T08:10:39.288Z,60.76
2023-04-23T08:11:35.880Z,60.36
2023-04-23T08:12:35.884Z,61.04
2023-04-23T08:13:32.784Z,60.92
2023-04-23T08:14:29.354Z,59.58
2023-04-23T08:15:25.917Z,60.61
2023-04-23T08:16:25.196Z,60.29
2023-04-23T08:17:21.879Z,61.34
2023-04-23T08:18:18.545Z,59.81
2023-04-23T08:19:15.146Z,60.33
2023-04-23T08:20:11.916Z,59.49
2023-04-23T08:21:08.770Z,59.02
2023-04-23T08:22:05.862Z,59.09
2023-04-23T08:23:02.595Z,59.48
2023-04-23T08:23:59.472Z,60.41
2023-04-23T08:24:56.151Z,59.10
2023-04-23T08:25:52.728Z,58.21
2023-04-23T08:26:49.855Z,58.02
2023-04-23T08:27:46.888Z,58.77
2023-04-23T08:28:43.457Z,59.77
2023-04-23T08:29:40.315Z,59.25
2023-04-23T08:30:37.160Z,58.39
2023-04-23T08:31:34.237Z,58.10
2023-04-23T08:32:30.889Z,59.02
2023-04-23T08:33:27.756Z,58.32
2023-04-23T08:34:24.367Z,57.95
2023-04-23T08:35:22.196Z,56.74
2023-04-23T08:36:18.761Z,57.46
2023-04-23T08:37:27.270Z,58.06
2023-04-23T08:38:26.883Z,55.49
2023-04-23T08:39:23.515Z,54.84
2023-04-23T08:40:20.551Z,56.07
2023-04-23T08:41:19.181Z,56.74
2023-04-23T08:42:23.864Z,56.46
2023-04-23T08:43:21.111Z,57.37
2023-04-23T08:44:26.198Z,56.30
2023-04-23T08:45:24.133Z,55.79
2023-04-23T08:46:23.237Z,54.71
2023-04-23T08:47:25.386Z,54.68
2023-04-23T08:48:22.363Z,55.91
2023-04-23T08:49:19.618Z,54.83
2023-04-23T08:50:19.892Z,56.39
2023-04-23T08:51:19.992Z,55.56
2023-04-23T08:52:20.567Z,53.81
2023-04-23T08:53:20.030Z,55.20
2023-04-23T08:54:22.771Z,53.85
2023-04-23T08:55:21.273Z,54.77
2023-04-23T08:56:18.680Z,56.08
2023-04-23T08:57:17.876Z,55.87
2023-04-23T08:58:15.256Z,53.13
2023-04-23T08:59:12.148Z,52.90
2023-04-23T09:00:11.002Z,52.61
2023-04-23T09:01:08.169Z,54.05
2023-04-23T09:02:09.983Z,54.99
2023-04-23T09:03:07.622Z,53.10
2023-04-23T09:04:05.083Z,53.33
2023-04-23T09:05:04.470Z,52.16
2023-04-23T09:06:01.934Z,53.47
2023-04-23T09:06:58.932Z,54.70
2023-04-23T09:07:56.794Z,54.61
2023-04-23T09:08:55.520Z,53.53
2023-04-23T09:09:52.190Z,53.36
2023-04-23T09:10:50.543Z,53.27
2023-04-23T09:11:47.146Z,53.80
2023-04-23T09:12:45.270Z,54.25
2023-04-23T09:13:42.057Z,50.70
2023-04-23T09:14:38.720Z,52.62
2023-04-23T09:15:38.806Z,51.20
2023-04-23T09:16:36.134Z,54.89
2023-04-23T09:17:34.277Z,53.12
2023-04-23T09:18:31.443Z,52.40
2023-04-23T09:19:28.466Z,52.56
2023-04-23T09:20:25.272Z,51.42
2023-04-23T09:21:21.937Z,52.75
2023-04-23T09:22:41.538Z,53.31
2023-04-23T09:23:39.575Z,52.81
2023-04-23T09:24:36.251Z,51.29
2023-04-23T09:25:34.921Z,49.17
2023-04-23T09:26:31.482Z,49.61
2023-04-23T09:27:28.052Z,52.39
2023-04-23T09:28:37.658Z,52.96
2023-04-23T09:29:34.230Z,53.64
2023-04-23T09:30:31.077Z,53.59
2023-04-23T09:31:28.098Z,53.34
2023-04-23T09:32:33.563Z,52.67
2023-04-23T09:33:31.097Z,51.23
2023-04-23T09:34:27.767Z,50.35
2023-04-23T09:35:28.181Z,51.73
2023-04-23T09:36:24.773Z,50.91
2023-04-23T09:37:25.910Z,50.43
2023-04-23T09:38:22.585Z,50.91
2023-04-23T09:39:23.919Z,50.47
2023-04-23T09:40:24.003Z,52.22
2023-04-23T09:41:28.334Z,49.94
2023-04-23T09:42:27.539Z,50.01
2023-04-23T09:43:24.144Z,51.98
2023-04-23T09:44:22.850Z,49.16
2023-04-23T09:45:20.083Z,50.97
2023-04-23T09:46:16.828Z,50.96
2023-04-23T09:47:15.806Z,49.92
2023-04-23T09:48:12.467Z,49.28
2023-04-23T09:49:11.058Z,50.36
2023-04-23T09:50:10.574Z,50.90
2023-04-23T09:51:07.246Z,49.09
2023-04-23T09:52:07.269Z,48.56
2023-04-23T09:53:08.322Z,47.60
2023-04-23T09:54:10.670Z,46.25
2023-04-23T09:55:08.155Z,48.17
2023-04-23T09:56:04.913Z,46.45
2023-04-23T09:57:02.950Z,46.67
2023-04-23T09:57:59.850Z,45.80
2023-04-23T09:58:56.463Z,46.25
2023-04-23T10:00:00.408Z,45.59
2023-04-23T10:01:09.258Z,48.27
2023-04-23T10:02:07.913Z,44.71
2023-04-23T10:03:07.001Z,48.12
2023-04-23T10:04:03.956Z,47.24
2023-04-23T10:05:14.224Z,47.26
2023-04-23T10:06:39.637Z,43.58
2023-04-23T10:07:35.163Z,44.88
2023-04-23T10:08:32.533Z,44.15
2023-04-23T10:09:29.960Z,46.27
2023-04-23T10:10:26.743Z,43.72
2023-04-23T10:11:25.716Z,44.52
2023-04-23T10:13:22.538Z,44.44
2023-04-23T10:14:22.543Z,43.78
2023-04-23T10:15:19.335Z,42.48
2023-04-23T10:16:23.323Z,43.12
2023-04-23T10:17:22.661Z,41.39
2023-04-23T10:18:20.692Z,44.64
2023-04-23T10:19:22.987Z,43.91
2023-04-23T10:20:21.848Z,40.56
2023-04-23T10:21:19.978Z,43.92
2023-04-23T10:22:20.051Z,43.95
2023-04-23T10:23:19.604Z,43.69
2023-04-23T10:24:20.826Z,44.62
2023-04-23T10:25:20.208Z,40.45
2023-04-23T10:26:17.334Z,43.87
2023-04-23T10:27:26.945Z,44.83
2023-04-23T10:28:33.822Z,41.74
2023-04-23T10:29:32.245Z,41.59
2023-04-23T10:30:29.313Z,40.60
2023-04-23T10:31:27.562Z,40.33
2023-04-23T10:32:25.587Z,40.15
2023-04-23T10:34:26.479Z,37.29
2023-04-23T10:35:23.160Z,36.02
2023-04-23T10:36:20.694Z,34.15
2023-04-23T10:37:19.492Z,37.14
2023-04-23T10:38:16.403Z,39.04
2023-04-23T10:39:20.781Z,37.02
2023-04-23T10:40:32.529Z,39.35
2023-04-23T10:41:36.561Z,41.30
2023-04-23T10:42:33.247Z,42.38
2023-04-23T10:43:30.023Z,42.03
2023-04-23T10:44:56.680Z,41.06
2023-04-23T10:45:53.889Z,40.38
2023-04-23T10:46:58.539Z,43.36
2023-04-23T10:47:56.265Z,42.92
2023-04-23T10:49:11.127Z,42.56
2023-04-23T10:50:27.983Z,42.77
2023-04-23T10:52:14.658Z,41.35
2023-04-23T10:52:54.551Z,40.31
2023-04-23T10:53:52.055Z,39.94
2023-04-23T10:54:56.544Z,39.75
2023-04-23T10:56:06.788Z,39.10
2023-04-23T10:57:07.451Z,40.83
2023-04-23T10:58:08.447Z,39.00
2023-04-23T10:59:18.019Z,38.73
2023-04-23T11:00:15.887Z,36.46
2023-04-23T11:01:12.888Z,38.46
2023-04-23T11:02:11.968Z,38.25
2023-04-23T11:03:45.462Z,38.66
2023-04-23T11:04:46.585Z,36.48
2023-04-23T11:05:45.167Z,35.87
2023-04-23T11:06:47.708Z,35.86
2023-04-23T11:08:11.070Z,35.95
2023-04-23T11:09:41.533Z,37.04
2023-04-23T11:11:08.594Z,34.25
2023-04-23T11:12:21.143Z,35.59
2023-04-23T11:13:24.140Z,35.43
2023-04-23T11:14:20.874Z,36.63
2023-04-23T11:15:19.537Z,34.71
2023-04-23T11:16:23.946Z,36.58
2023-04-23T11:17:44.628Z,39.34
2023-04-23T11:19:03.852Z,38.10
2023-04-23T11:20:11.794Z,36.46
2023-04-23T11:21:08.477Z,34.46
2023-04-23T11:22:18.589Z,33.95
2023-04-23T11:23:34.117Z,35.97
2023-04-23T11:24:44.573Z,35.15
2023-04-23T11:25:43.854Z,33.42
2023-04-23T11:26:42.897Z,36.28
2023-04-23T11:27:44.193Z,36.46
2023-04-23T11:28:43.753Z,36.52
2023-04-23T11:29:43.144Z,36.08
2023-04-23T11:30:39.975Z,35.80
2023-04-23T11:31:38.195Z,35.45
2023-04-23T11:32:37.510Z,37.46
2023-04-23T11:33:34.175Z,33.80
2023-04-23T11:34:32.263Z,34.18
2023-04-23T11:35:30.435Z,34.14
2023-04-23T11:36:27.656Z,35.35
2023-04-23T11:37:25.423Z,34.54
2023-04-23T11:38:22.408Z,36.54
2023-04-23T11:39:19.697Z,38.56
2023-04-23T11:40:21.107Z,36.08
2023-04-23T11:41:23.379Z,35.89
2023-04-23T11:42:20.357Z,36.03
2023-04-23T11:43:21.158Z,36.25
2023-04-23T11:44:18.820Z,36.58
2023-04-23T11:45:20.559Z,33.23
2023-04-23T11:46:17.170Z,34.28
2023-04-23T11:47:16.723Z,33.96
2023-04-23T11:48:13.383Z,33.45
2023-04-23T11:49:10.370Z,33.09
2023-04-23T11:50:08.701Z,35.35
2023-04-23T11:51:05.323Z,34.59
2023-04-23T11:52:02.230Z,33.63
2023-04-23T11:53:06.338Z,34.50
2023-04-23T11:54:04.521Z,35.61
2023-04-23T11:55:06.687Z,33.38
2023-04-23T11:56:05.241Z,35.33
2023-04-23T11:57:04.757Z,33.00
2023-04-23T11:58:01.380Z,34.53
2023-04-23T11:59:05.330Z,36.68
2023-04-23T12:00:12.322Z,34.84
2023-04-23T12:01:11.745Z,34.32
2023-04-23T12:02:08.396Z,35.31
2023-04-23T12:03:06.598Z,34.46
2023-04-23T12:04:10.722Z,36.31
2023-04-23T12:05:09.340Z,33.89
2023-04-23T12:06:06.553Z,34.75
2023-04-23T12:07:10.157Z,36.91
2023-04-23T12:08:18.126Z,35.74
2023-04-23T12:09:16.664Z,37.40
2023-04-23T12:10:18.176Z,36.24
2023-04-23T12:11:15.300Z,35.98
2023-04-23T12:12:11.911Z,36.39
2023-04-23T12:13:14.349Z,35.46
2023-04-23T12:14:11.688Z,35.17
2023-04-23T12:15:08.757Z,35.96
2023-04-23T12:16:06.227Z,34.97
2023-04-23T12:17:10.512Z,34.39
2023-04-23T12:18:11.124Z,34.27
2023-04-23T12:19:28.940Z,34.93
2023-04-23T12:20:25.679Z,34.64
2023-04-23T12:21:23.847Z,34.08
2023-04-23T12:22:28.337Z,36.14
2023-04-23T12:23:28.257Z,34.87
2023-04-23T12:24:30.433Z,34.46
2023-04-23T12:25:27.186Z,33.24
2023-04-23T12:26:25.790Z,34.24
2023-04-23T12:27:22.958Z,34.46
2023-04-23T12:28:23.936Z,33.88
2023-04-23T12:29:24.761Z,33.27
2023-04-23T12:30:21.649Z,33.80
2023-04-23T12:31:27.777Z,33.44
2023-04-23T12:32:24.530Z,33.36
2023-04-23T12:33:21.161Z,32.22